sensor_id;sensor_type;location;lat;lon;timestamp;temperature;humidity
15426;DHT22;7812;50.072;7.036;2023-07-29T00:01:44;17.40;99.90
15426;DHT22;7812;50.072;7.036;2023-07-29T00:04:09;17.30;99.90
15426;DHT22;7812;50.072;7.036;2023-07-29T00:06:35;17.30;99.90
15426;DHT22;7812;50.072;7.036;2023-07-29T00:09:02;17.30;99.90
15426;DHT22;7812;50.072;7.036;2023-07-29T00:11:28;17.30;99.90
15426;DHT22;7812;50.072;7.036;2023-07-29T00:13:53;17.30;99.90
15426;DHT22;7812;50.072;7.036;2023-07-29T00:16:20;17.30;99.90
15426;DHT22;7812;50.072;7.036;2023-07-29T00:18:48;17.40;99.90
15426;DHT22;7812;50.072;7.036;2023-07-29T00:21:13;17.30;99.90
15426;DHT22;7812;50.072;7.036;2023-07-29T00:23:39;17.30;99.90
15426;DHT22;7812;50.072;7.036;2023-07-29T00:26:05;17.20;99.90
15426;DHT22;7812;50.072;7.036;2023-07-29T00:28:30;17.20;99.90
15426;DHT22;7812;50.072;7.036;2023-07-29T00:30:56;17.20;99.90
15426;DHT22;7812;50.072;7.036;2023-07-29T00:33:22;17.10;99.90
15426;DHT22;7812;50.072;7.036;2023-07-29T00:35:47;17.10;99.90
15426;DHT22;7812;50.072;7.036;2023-07-29T00:38:13;17.10;99.90
15426;DHT22;7812;50.072;7.036;2023-07-29T00:40:39;17.10;99.90
15426;DHT22;7812;50.072;7.036;2023-07-29T00:43:05;17.10;99.90
15426;DHT22;7812;50.072;7.036;2023-07-29T00:45:32;17.10;99.90
15426;DHT22;7812;50.072;7.036;2023-07-29T00:47:58;17.10;99.90
15426;DHT22;7812;50.072;7.036;2023-07-29T00:50:24;17.20;99.90
15426;DHT22;7812;50.072;7.036;2023-07-29T00:52:53;17.10;99.90
15426;DHT22;7812;50.072;7.036;2023-07-29T00:55:19;17.10;99.90
15426;DHT22;7812;50.072;7.036;2023-07-29T00:57:45;17.10;99.90
15426;DHT22;7812;50.072;7.036;2023-07-29T01:00:14;17.10;99.90
15426;DHT22;7812;50.072;7.036;2023-07-29T01:02:42;17.10;99.90
15426;DHT22;7812;50.072;7.036;2023-07-29T01:05:08;17.10;99.90
15426;DHT22;7812;50.072;7.036;2023-07-29T01:13:19;17.00;99.90
15426;DHT22;7812;50.072;7.036;2023-07-29T01:18:36;16.90;99.90
15426;DHT22;7812;50.072;7.036;2023-07-29T01:21:04;16.90;99.90
15426;DHT22;7812;50.072;7.036;2023-07-29T01:23:34;16.90;99.90
15426;DHT22;7812;50.072;7.036;2023-07-29T01:26:00;16.90;99.90
15426;DHT22;7812;50.072;7.036;2023-07-29T01:28:27;16.90;99.90
15426;DHT22;7812;50.072;7.036;2023-07-29T01:33:42;16.90;99.90
15426;DHT22;7812;50.072;7.036;2023-07-29T01:36:17;16.90;99.90
15426;DHT22;7812;50.072;7.036;2023-07-29T01:38:44;16.90;99.90
15426;DHT22;7812;50.072;7.036;2023-07-29T01:41:11;16.90;99.90
15426;DHT22;7812;50.072;7.036;2023-07-29T01:43:37;16.90;99.90
15426;DHT22;7812;50.072;7.036;2023-07-29T01:46:15;16.90;99.90
15426;DHT22;7812;50.072;7.036;2023-07-29T01:48:42;16.90;99.90
15426;DHT22;7812;50.072;7.036;2023-07-29T01:51:08;16.90;99.90
15426;DHT22;7812;50.072;7.036;2023-07-29T01:53:34;16.80;99.90
15426;DHT22;7812;50.072;7.036;2023-07-29T01:56:01;16.70;99.90
15426;DHT22;7812;50.072;7.036;2023-07-29T01:58:27;16.70;99.90
15426;DHT22;7812;50.072;7.036;2023-07-29T02:00:53;16.70;99.90
15426;DHT22;7812;50.072;7.036;2023-07-29T02:03:18;16.70;99.90
15426;DHT22;7812;50.072;7.036;2023-07-29T02:05:44;16.70;99.90
15426;DHT22;7812;50.072;7.036;2023-07-29T02:08:10;16.60;99.90
15426;DHT22;7812;50.072;7.036;2023-07-29T02:10:36;16.60;99.90
15426;DHT22;7812;50.072;7.036;2023-07-29T02:13:02;16.50;99.90
15426;DHT22;7812;50.072;7.036;2023-07-29T02:15:28;16.60;99.90
15426;DHT22;7812;50.072;7.036;2023-07-29T02:17:54;16.60;99.90
15426;DHT22;7812;50.072;7.036;2023-07-29T02:20:19;16.60;99.90
15426;DHT22;7812;50.072;7.036;2023-07-29T02:22:45;16.60;99.90
15426;DHT22;7812;50.072;7.036;2023-07-29T02:25:11;16.60;99.90
15426;DHT22;7812;50.072;7.036;2023-07-29T02:27:36;16.60;99.90
15426;DHT22;7812;50.072;7.036;2023-07-29T02:30:02;16.60;99.90
15426;DHT22;7812;50.072;7.036;2023-07-29T02:32:28;16.60;99.90
15426;DHT22;7812;50.072;7.036;2023-07-29T02:34:54;16.70;99.90
15426;DHT22;7812;50.072;7.036;2023-07-29T02:37:20;16.70;99.90
15426;DHT22;7812;50.072;7.036;2023-07-29T02:39:45;16.70;99.90
15426;DHT22;7812;50.072;7.036;2023-07-29T02:42:11;16.70;99.90
15426;DHT22;7812;50.072;7.036;2023-07-29T02:44:37;16.70;99.90
15426;DHT22;7812;50.072;7.036;2023-07-29T02:47:03;16.70;99.90
15426;DHT22;7812;50.072;7.036;2023-07-29T02:49:28;16.70;99.90
15426;DHT22;7812;50.072;7.036;2023-07-29T02:51:54;16.70;99.90
15426;DHT22;7812;50.072;7.036;2023-07-29T02:54:20;16.70;99.90
15426;DHT22;7812;50.072;7.036;2023-07-29T02:56:46;16.70;99.90
15426;DHT22;7812;50.072;7.036;2023-07-29T02:59:11;16.70;99.90
15426;DHT22;7812;50.072;7.036;2023-07-29T03:01:37;16.70;99.90
15426;DHT22;7812;50.072;7.036;2023-07-29T03:04:03;16.70;99.90
15426;DHT22;7812;50.072;7.036;2023-07-29T03:06:29;16.70;99.90
15426;DHT22;7812;50.072;7.036;2023-07-29T03:08:54;16.70;99.90
15426;DHT22;7812;50.072;7.036;2023-07-29T03:11:20;16.70;99.90
15426;DHT22;7812;50.072;7.036;2023-07-29T03:13:45;16.70;99.90
15426;DHT22;7812;50.072;7.036;2023-07-29T03:16:16;16.70;99.90
15426;DHT22;7812;50.072;7.036;2023-07-29T03:18:42;16.80;99.90
15426;DHT22;7812;50.072;7.036;2023-07-29T03:21:09;16.80;99.90
15426;DHT22;7812;50.072;7.036;2023-07-29T03:23:35;16.80;99.90
15426;DHT22;7812;50.072;7.036;2023-07-29T03:26:02;16.80;99.90
15426;DHT22;7812;50.072;7.036;2023-07-29T03:28:32;16.80;99.90
15426;DHT22;7812;50.072;7.036;2023-07-29T03:30:58;16.90;99.90
15426;DHT22;7812;50.072;7.036;2023-07-29T03:33:25;16.90;99.90
15426;DHT22;7812;50.072;7.036;2023-07-29T03:35:52;16.90;99.90
15426;DHT22;7812;50.072;7.036;2023-07-29T03:38:37;16.90;99.90
15426;DHT22;7812;50.072;7.036;2023-07-29T03:41:07;17.00;99.90
15426;DHT22;7812;50.072;7.036;2023-07-29T03:43:33;17.00;99.90
15426;DHT22;7812;50.072;7.036;2023-07-29T03:45:58;17.00;99.90
15426;DHT22;7812;50.072;7.036;2023-07-29T03:48:24;17.00;99.90
15426;DHT22;7812;50.072;7.036;2023-07-29T03:50:49;17.10;99.90
15426;DHT22;7812;50.072;7.036;2023-07-29T03:53:15;17.00;99.90
15426;DHT22;7812;50.072;7.036;2023-07-29T03:55:41;17.10;99.90
15426;DHT22;7812;50.072;7.036;2023-07-29T03:58:06;17.10;99.90
15426;DHT22;7812;50.072;7.036;2023-07-29T04:00:32;17.10;99.90
15426;DHT22;7812;50.072;7.036;2023-07-29T04:02:59;17.20;99.90
15426;DHT22;7812;50.072;7.036;2023-07-29T04:05:24;17.20;99.90
15426;DHT22;7812;50.072;7.036;2023-07-29T04:07:50;17.30;99.90
15426;DHT22;7812;50.072;7.036;2023-07-29T04:10:16;17.20;99.90
15426;DHT22;7812;50.072;7.036;2023-07-29T04:12:42;17.20;99.90
15426;DHT22;7812;50.072;7.036;2023-07-29T04:15:08;17.20;99.90
15426;DHT22;7812;50.072;7.036;2023-07-29T04:17:34;17.20;99.90
15426;DHT22;7812;50.072;7.036;2023-07-29T04:19:59;17.30;99.90
15426;DHT22;7812;50.072;7.036;2023-07-29T04:22:25;17.30;99.90
15426;DHT22;7812;50.072;7.036;2023-07-29T04:24:51;17.30;99.90
15426;DHT22;7812;50.072;7.036;2023-07-29T04:27:16;17.40;99.90
15426;DHT22;7812;50.072;7.036;2023-07-29T04:29:42;17.40;99.90
15426;DHT22;7812;50.072;7.036;2023-07-29T04:32:07;17.40;99.90
15426;DHT22;7812;50.072;7.036;2023-07-29T04:34:33;17.50;99.90
15426;DHT22;7812;50.072;7.036;2023-07-29T04:36:59;17.50;99.90
15426;DHT22;7812;50.072;7.036;2023-07-29T04:39:24;17.50;99.90
15426;DHT22;7812;50.072;7.036;2023-07-29T04:41:50;17.40;99.90
15426;DHT22;7812;50.072;7.036;2023-07-29T04:44:16;17.40;99.90
15426;DHT22;7812;50.072;7.036;2023-07-29T04:46:41;17.40;99.90
15426;DHT22;7812;50.072;7.036;2023-07-29T04:49:07;17.40;99.90
15426;DHT22;7812;50.072;7.036;2023-07-29T04:51:33;17.40;99.90
15426;DHT22;7812;50.072;7.036;2023-07-29T04:53:58;17.50;99.90
15426;DHT22;7812;50.072;7.036;2023-07-29T04:56:25;17.50;99.90
15426;DHT22;7812;50.072;7.036;2023-07-29T04:58:50;17.60;99.90
15426;DHT22;7812;50.072;7.036;2023-07-29T05:01:16;17.60;99.90
15426;DHT22;7812;50.072;7.036;2023-07-29T05:03:42;17.50;99.90
15426;DHT22;7812;50.072;7.036;2023-07-29T05:06:07;17.50;99.90
15426;DHT22;7812;50.072;7.036;2023-07-29T05:08:33;17.50;99.90
15426;DHT22;7812;50.072;7.036;2023-07-29T05:10:59;17.60;99.90
15426;DHT22;7812;50.072;7.036;2023-07-29T05:13:24;17.60;99.90
15426;DHT22;7812;50.072;7.036;2023-07-29T05:15:50;17.70;99.90
15426;DHT22;7812;50.072;7.036;2023-07-29T05:18:17;17.60;99.90
15426;DHT22;7812;50.072;7.036;2023-07-29T05:20:42;17.60;99.90
15426;DHT22;7812;50.072;7.036;2023-07-29T05:23:08;17.60;99.90
15426;DHT22;7812;50.072;7.036;2023-07-29T05:25:34;17.60;99.90
15426;DHT22;7812;50.072;7.036;2023-07-29T05:28:01;17.70;99.90
15426;DHT22;7812;50.072;7.036;2023-07-29T05:30:26;17.70;99.90
15426;DHT22;7812;50.072;7.036;2023-07-29T05:32:57;17.70;99.90
15426;DHT22;7812;50.072;7.036;2023-07-29T05:35:24;17.70;99.90
15426;DHT22;7812;50.072;7.036;2023-07-29T05:37:50;17.80;99.90
15426;DHT22;7812;50.072;7.036;2023-07-29T05:40:15;17.80;99.90
15426;DHT22;7812;50.072;7.036;2023-07-29T05:42:41;17.80;99.90
15426;DHT22;7812;50.072;7.036;2023-07-29T05:45:07;17.80;99.90
15426;DHT22;7812;50.072;7.036;2023-07-29T05:47:33;17.80;99.90
15426;DHT22;7812;50.072;7.036;2023-07-29T05:49:59;17.80;99.90
15426;DHT22;7812;50.072;7.036;2023-07-29T05:52:27;17.70;99.90
15426;DHT22;7812;50.072;7.036;2023-07-29T05:54:52;17.70;99.90
15426;DHT22;7812;50.072;7.036;2023-07-29T05:57:18;17.70;99.90
15426;DHT22;7812;50.072;7.036;2023-07-29T05:59:44;17.70;99.90
15426;DHT22;7812;50.072;7.036;2023-07-29T06:02:09;17.80;99.90
15426;DHT22;7812;50.072;7.036;2023-07-29T06:04:35;17.80;99.90
15426;DHT22;7812;50.072;7.036;2023-07-29T06:07:01;17.90;99.90
15426;DHT22;7812;50.072;7.036;2023-07-29T06:09:26;17.90;99.90
15426;DHT22;7812;50.072;7.036;2023-07-29T06:11:52;17.90;99.90
15426;DHT22;7812;50.072;7.036;2023-07-29T06:14:18;17.90;99.90
15426;DHT22;7812;50.072;7.036;2023-07-29T06:16:43;17.90;99.90
15426;DHT22;7812;50.072;7.036;2023-07-29T06:19:09;18.00;99.90
15426;DHT22;7812;50.072;7.036;2023-07-29T06:21:35;18.10;99.90
15426;DHT22;7812;50.072;7.036;2023-07-29T06:24:01;18.20;99.90
15426;DHT22;7812;50.072;7.036;2023-07-29T06:26:27;18.30;99.90
15426;DHT22;7812;50.072;7.036;2023-07-29T06:28:53;18.40;99.90
15426;DHT22;7812;50.072;7.036;2023-07-29T06:31:19;18.50;99.90
15426;DHT22;7812;50.072;7.036;2023-07-29T06:33:45;18.60;99.90
15426;DHT22;7812;50.072;7.036;2023-07-29T06:36:11;18.80;99.90
15426;DHT22;7812;50.072;7.036;2023-07-29T06:38:36;18.90;99.90
15426;DHT22;7812;50.072;7.036;2023-07-29T06:41:04;19.40;99.90
15426;DHT22;7812;50.072;7.036;2023-07-29T06:43:30;20.10;99.90
15426;DHT22;7812;50.072;7.036;2023-07-29T06:45:56;21.80;99.90
15426;DHT22;7812;50.072;7.036;2023-07-29T06:48:21;23.10;99.90
15426;DHT22;7812;50.072;7.036;2023-07-29T06:50:47;23.00;99.90
15426;DHT22;7812;50.072;7.036;2023-07-29T06:53:13;22.30;99.90
15426;DHT22;7812;50.072;7.036;2023-07-29T06:55:38;21.90;99.90
15426;DHT22;7812;50.072;7.036;2023-07-29T06:58:04;21.50;99.90
15426;DHT22;7812;50.072;7.036;2023-07-29T07:00:30;21.10;99.90
15426;DHT22;7812;50.072;7.036;2023-07-29T07:02:56;21.00;99.90
15426;DHT22;7812;50.072;7.036;2023-07-29T07:05:21;20.70;99.90
15426;DHT22;7812;50.072;7.036;2023-07-29T07:07:47;20.40;99.90
15426;DHT22;7812;50.072;7.036;2023-07-29T07:10:15;20.50;99.90
15426;DHT22;7812;50.072;7.036;2023-07-29T07:12:40;20.70;99.90
15426;DHT22;7812;50.072;7.036;2023-07-29T07:15:06;21.00;99.90
15426;DHT22;7812;50.072;7.036;2023-07-29T07:17:32;21.00;99.90
15426;DHT22;7812;50.072;7.036;2023-07-29T07:19:58;21.00;99.90
15426;DHT22;7812;50.072;7.036;2023-07-29T07:22:24;20.90;99.90
15426;DHT22;7812;50.072;7.036;2023-07-29T07:24:49;20.70;99.90
15426;DHT22;7812;50.072;7.036;2023-07-29T07:27:15;20.50;99.90
15426;DHT22;7812;50.072;7.036;2023-07-29T07:29:40;20.40;99.90
15426;DHT22;7812;50.072;7.036;2023-07-29T07:32:06;20.20;99.90
15426;DHT22;7812;50.072;7.036;2023-07-29T07:34:32;20.00;99.90
15426;DHT22;7812;50.072;7.036;2023-07-29T07:36:58;20.10;99.90
15426;DHT22;7812;50.072;7.036;2023-07-29T07:39:24;20.30;99.90
15426;DHT22;7812;50.072;7.036;2023-07-29T07:41:50;20.40;99.90
15426;DHT22;7812;50.072;7.036;2023-07-29T07:44:15;20.80;99.90
15426;DHT22;7812;50.072;7.036;2023-07-29T07:46:44;21.10;99.90
15426;DHT22;7812;50.072;7.036;2023-07-29T07:49:10;21.10;99.90
15426;DHT22;7812;50.072;7.036;2023-07-29T07:51:36;21.30;99.90
15426;DHT22;7812;50.072;7.036;2023-07-29T07:54:01;21.20;99.90
15426;DHT22;7812;50.072;7.036;2023-07-29T07:56:27;21.00;99.90
15426;DHT22;7812;50.072;7.036;2023-07-29T07:58:52;20.70;99.90
15426;DHT22;7812;50.072;7.036;2023-07-29T08:01:18;20.50;99.90
15426;DHT22;7812;50.072;7.036;2023-07-29T08:03:44;20.40;99.90
15426;DHT22;7812;50.072;7.036;2023-07-29T08:06:09;20.40;99.90
15426;DHT22;7812;50.072;7.036;2023-07-29T08:08:35;20.30;99.90
15426;DHT22;7812;50.072;7.036;2023-07-29T08:11:00;20.10;99.90
15426;DHT22;7812;50.072;7.036;2023-07-29T08:13:26;20.00;99.90
15426;DHT22;7812;50.072;7.036;2023-07-29T08:15:52;19.90;99.90
15426;DHT22;7812;50.072;7.036;2023-07-29T08:18:18;19.90;99.90
15426;DHT22;7812;50.072;7.036;2023-07-29T08:20:54;19.90;99.90
15426;DHT22;7812;50.072;7.036;2023-07-29T08:23:21;19.90;99.90
15426;DHT22;7812;50.072;7.036;2023-07-29T08:25:58;20.00;99.90
15426;DHT22;7812;50.072;7.036;2023-07-29T08:30:57;20.20;99.90
15426;DHT22;7812;50.072;7.036;2023-07-29T08:33:23;20.20;99.90
15426;DHT22;7812;50.072;7.036;2023-07-29T08:35:49;20.20;99.90
15426;DHT22;7812;50.072;7.036;2023-07-29T08:38:15;20.10;99.90
15426;DHT22;7812;50.072;7.036;2023-07-29T08:40:49;20.00;99.90
15426;DHT22;7812;50.072;7.036;2023-07-29T08:43:19;20.00;99.90
15426;DHT22;7812;50.072;7.036;2023-07-29T08:45:46;20.20;99.90
15426;DHT22;7812;50.072;7.036;2023-07-29T08:48:12;20.40;99.90
15426;DHT22;7812;50.072;7.036;2023-07-29T08:50:41;21.20;99.90
15426;DHT22;7812;50.072;7.036;2023-07-29T08:53:08;22.70;99.90
15426;DHT22;7812;50.072;7.036;2023-07-29T08:55:35;23.70;99.90
15426;DHT22;7812;50.072;7.036;2023-07-29T08:58:01;23.60;99.90
15426;DHT22;7812;50.072;7.036;2023-07-29T09:00:28;23.50;99.90
15426;DHT22;7812;50.072;7.036;2023-07-29T09:02:54;23.50;99.90
15426;DHT22;7812;50.072;7.036;2023-07-29T09:05:21;23.30;99.90
15426;DHT22;7812;50.072;7.036;2023-07-29T09:07:50;23.50;99.90
15426;DHT22;7812;50.072;7.036;2023-07-29T09:10:16;23.50;99.90
15426;DHT22;7812;50.072;7.036;2023-07-29T09:12:46;23.60;99.90
15426;DHT22;7812;50.072;7.036;2023-07-29T09:15:12;23.60;99.90
15426;DHT22;7812;50.072;7.036;2023-07-29T09:17:37;23.20;99.90
15426;DHT22;7812;50.072;7.036;2023-07-29T09:20:06;22.80;99.90
15426;DHT22;7812;50.072;7.036;2023-07-29T09:22:35;22.30;99.90
15426;DHT22;7812;50.072;7.036;2023-07-29T09:25:00;22.30;99.90
15426;DHT22;7812;50.072;7.036;2023-07-29T09:27:27;22.50;99.90
15426;DHT22;7812;50.072;7.036;2023-07-29T09:29:54;22.90;99.90
15426;DHT22;7812;50.072;7.036;2023-07-29T09:32:21;23.30;99.90
15426;DHT22;7812;50.072;7.036;2023-07-29T09:34:47;24.10;99.90
15426;DHT22;7812;50.072;7.036;2023-07-29T09:37:32;25.40;99.90
15426;DHT22;7812;50.072;7.036;2023-07-29T09:39:57;25.50;99.90
15426;DHT22;7812;50.072;7.036;2023-07-29T09:42:23;26.60;99.90
15426;DHT22;7812;50.072;7.036;2023-07-29T09:44:50;27.90;99.90
15426;DHT22;7812;50.072;7.036;2023-07-29T09:47:23;27.80;99.90
15426;DHT22;7812;50.072;7.036;2023-07-29T09:49:49;27.80;99.90
15426;DHT22;7812;50.072;7.036;2023-07-29T09:52:19;28.40;99.90
15426;DHT22;7812;50.072;7.036;2023-07-29T09:54:46;29.10;99.90
15426;DHT22;7812;50.072;7.036;2023-07-29T09:57:18;30.20;99.90
15426;DHT22;7812;50.072;7.036;2023-07-29T09:59:53;30.60;99.90
15426;DHT22;7812;50.072;7.036;2023-07-29T10:02:19;30.50;99.90
15426;DHT22;7812;50.072;7.036;2023-07-29T10:04:46;29.90;99.90
15426;DHT22;7812;50.072;7.036;2023-07-29T10:07:12;30.90;99.90
15426;DHT22;7812;50.072;7.036;2023-07-29T10:09:39;32.00;99.90
15426;DHT22;7812;50.072;7.036;2023-07-29T10:12:06;32.30;99.90
15426;DHT22;7812;50.072;7.036;2023-07-29T10:14:32;31.40;99.90
15426;DHT22;7812;50.072;7.036;2023-07-29T10:16:58;30.10;99.90
15426;DHT22;7812;50.072;7.036;2023-07-29T10:19:25;28.10;99.90
15426;DHT22;7812;50.072;7.036;2023-07-29T10:21:52;28.10;99.90
15426;DHT22;7812;50.072;7.036;2023-07-29T10:24:24;28.40;99.90
15426;DHT22;7812;50.072;7.036;2023-07-29T10:27:00;28.90;99.90
15426;DHT22;7812;50.072;7.036;2023-07-29T10:29:31;30.20;99.90
15426;DHT22;7812;50.072;7.036;2023-07-29T10:32:03;32.10;99.90
15426;DHT22;7812;50.072;7.036;2023-07-29T10:34:30;32.50;99.90
15426;DHT22;7812;50.072;7.036;2023-07-29T10:36:57;32.10;99.90
15426;DHT22;7812;50.072;7.036;2023-07-29T10:39:26;31.80;99.90
15426;DHT22;7812;50.072;7.036;2023-07-29T10:41:59;30.90;99.90
15426;DHT22;7812;50.072;7.036;2023-07-29T10:47:14;28.20;99.90
15426;DHT22;7812;50.072;7.036;2023-07-29T10:49:41;27.30;99.90
15426;DHT22;7812;50.072;7.036;2023-07-29T10:52:07;26.20;99.90
15426;DHT22;7812;50.072;7.036;2023-07-29T10:57:08;25.10;99.90
15426;DHT22;7812;50.072;7.036;2023-07-29T10:59:33;25.00;99.90
15426;DHT22;7812;50.072;7.036;2023-07-29T11:02:00;24.60;99.90
15426;DHT22;7812;50.072;7.036;2023-07-29T11:04:28;24.40;99.90
15426;DHT22;7812;50.072;7.036;2023-07-29T11:17:35;23.70;99.90
15426;DHT22;7812;50.072;7.036;2023-07-29T11:20:01;23.80;99.90
15426;DHT22;7812;50.072;7.036;2023-07-29T11:22:29;24.00;99.90
15426;DHT22;7812;50.072;7.036;2023-07-29T11:24:54;24.80;99.90
15426;DHT22;7812;50.072;7.036;2023-07-29T11:27:20;25.30;99.90
15426;DHT22;7812;50.072;7.036;2023-07-29T11:29:47;25.10;99.90
15426;DHT22;7812;50.072;7.036;2023-07-29T11:32:13;25.00;99.90
15426;DHT22;7812;50.072;7.036;2023-07-29T11:34:39;25.10;99.90
15426;DHT22;7812;50.072;7.036;2023-07-29T11:37:09;25.90;99.90
15426;DHT22;7812;50.072;7.036;2023-07-29T11:39:40;26.90;99.90
15426;DHT22;7812;50.072;7.036;2023-07-29T11:42:06;28.60;99.90
15426;DHT22;7812;50.072;7.036;2023-07-29T11:44:32;29.80;99.90
15426;DHT22;7812;50.072;7.036;2023-07-29T11:46:58;30.60;99.90
15426;DHT22;7812;50.072;7.036;2023-07-29T11:49:23;31.20;99.90
15426;DHT22;7812;50.072;7.036;2023-07-29T11:51:49;32.10;99.90
15426;DHT22;7812;50.072;7.036;2023-07-29T11:54:15;31.50;99.90
15426;DHT22;7812;50.072;7.036;2023-07-29T11:56:41;28.80;99.90
15426;DHT22;7812;50.072;7.036;2023-07-29T11:59:07;26.80;99.90
15426;DHT22;7812;50.072;7.036;2023-07-29T12:01:33;26.40;99.90
15426;DHT22;7812;50.072;7.036;2023-07-29T12:03:59;27.20;99.90
15426;DHT22;7812;50.072;7.036;2023-07-29T12:06:25;27.80;99.90
15426;DHT22;7812;50.072;7.036;2023-07-29T12:08:51;28.30;99.90
15426;DHT22;7812;50.072;7.036;2023-07-29T12:11:17;29.60;99.90
15426;DHT22;7812;50.072;7.036;2023-07-29T12:13:43;30.00;99.90
15426;DHT22;7812;50.072;7.036;2023-07-29T12:16:09;29.60;99.90
15426;DHT22;7812;50.072;7.036;2023-07-29T12:18:36;29.10;99.90
15426;DHT22;7812;50.072;7.036;2023-07-29T12:21:02;28.60;99.90
15426;DHT22;7812;50.072;7.036;2023-07-29T12:23:29;28.80;99.90
15426;DHT22;7812;50.072;7.036;2023-07-29T12:25:59;27.80;99.90
15426;DHT22;7812;50.072;7.036;2023-07-29T12:28:25;27.20;99.90
15426;DHT22;7812;50.072;7.036;2023-07-29T12:30:55;26.90;99.90
15426;DHT22;7812;50.072;7.036;2023-07-29T12:33:34;26.40;99.90
15426;DHT22;7812;50.072;7.036;2023-07-29T12:36:01;27.00;99.90
15426;DHT22;7812;50.072;7.036;2023-07-29T12:38:27;27.90;99.90
15426;DHT22;7812;50.072;7.036;2023-07-29T12:40:53;28.10;99.90
15426;DHT22;7812;50.072;7.036;2023-07-29T12:43:19;28.20;99.90
15426;DHT22;7812;50.072;7.036;2023-07-29T12:45:45;28.50;99.90
15426;DHT22;7812;50.072;7.036;2023-07-29T12:48:11;28.20;99.90
15426;DHT22;7812;50.072;7.036;2023-07-29T12:50:38;28.10;99.90
15426;DHT22;7812;50.072;7.036;2023-07-29T12:53:08;27.20;99.90
15426;DHT22;7812;50.072;7.036;2023-07-29T12:55:35;26.40;99.90
15426;DHT22;7812;50.072;7.036;2023-07-29T12:58:01;26.20;99.90
15426;DHT22;7812;50.072;7.036;2023-07-29T13:00:27;26.10;99.90
15426;DHT22;7812;50.072;7.036;2023-07-29T13:02:53;26.40;99.90
15426;DHT22;7812;50.072;7.036;2023-07-29T13:05:19;26.80;99.90
15426;DHT22;7812;50.072;7.036;2023-07-29T13:07:45;26.60;99.90
15426;DHT22;7812;50.072;7.036;2023-07-29T13:10:12;25.80;99.90
15426;DHT22;7812;50.072;7.036;2023-07-29T13:12:38;25.60;99.90
15426;DHT22;7812;50.072;7.036;2023-07-29T13:15:04;25.60;99.90
15426;DHT22;7812;50.072;7.036;2023-07-29T13:17:30;26.00;99.90
15426;DHT22;7812;50.072;7.036;2023-07-29T13:19:55;26.30;99.90
15426;DHT22;7812;50.072;7.036;2023-07-29T13:22:21;26.60;99.90
15426;DHT22;7812;50.072;7.036;2023-07-29T13:24:47;26.30;99.90
15426;DHT22;7812;50.072;7.036;2023-07-29T13:27:12;26.00;99.90
15426;DHT22;7812;50.072;7.036;2023-07-29T13:29:39;26.00;99.90
15426;DHT22;7812;50.072;7.036;2023-07-29T13:32:05;26.00;99.90
15426;DHT22;7812;50.072;7.036;2023-07-29T13:34:31;26.00;99.90
15426;DHT22;7812;50.072;7.036;2023-07-29T13:36:57;25.70;99.90
15426;DHT22;7812;50.072;7.036;2023-07-29T13:39:23;25.50;99.90
15426;DHT22;7812;50.072;7.036;2023-07-29T13:41:49;25.50;99.90
15426;DHT22;7812;50.072;7.036;2023-07-29T13:44:14;25.80;99.90
15426;DHT22;7812;50.072;7.036;2023-07-29T13:46:40;25.90;99.90
15426;DHT22;7812;50.072;7.036;2023-07-29T13:49:05;26.00;99.90
15426;DHT22;7812;50.072;7.036;2023-07-29T13:51:31;25.70;99.90
15426;DHT22;7812;50.072;7.036;2023-07-29T13:53:57;25.70;99.90
15426;DHT22;7812;50.072;7.036;2023-07-29T13:56:23;25.90;99.90
15426;DHT22;7812;50.072;7.036;2023-07-29T13:58:48;26.10;99.90
15426;DHT22;7812;50.072;7.036;2023-07-29T14:01:14;25.80;99.90
15426;DHT22;7812;50.072;7.036;2023-07-29T14:03:40;26.00;99.90
15426;DHT22;7812;50.072;7.036;2023-07-29T14:06:05;26.20;99.90
15426;DHT22;7812;50.072;7.036;2023-07-29T14:08:31;26.50;99.90
15426;DHT22;7812;50.072;7.036;2023-07-29T14:10:57;26.00;99.90
15426;DHT22;7812;50.072;7.036;2023-07-29T14:13:22;25.80;99.90
15426;DHT22;7812;50.072;7.036;2023-07-29T14:15:48;25.70;99.90
15426;DHT22;7812;50.072;7.036;2023-07-29T14:18:13;25.50;99.90
15426;DHT22;7812;50.072;7.036;2023-07-29T14:20:39;25.20;99.90
15426;DHT22;7812;50.072;7.036;2023-07-29T14:23:05;25.20;99.90
15426;DHT22;7812;50.072;7.036;2023-07-29T14:25:31;25.60;99.90
15426;DHT22;7812;50.072;7.036;2023-07-29T14:27:56;25.90;99.90
15426;DHT22;7812;50.072;7.036;2023-07-29T14:30:22;26.00;99.90
15426;DHT22;7812;50.072;7.036;2023-07-29T14:32:48;26.10;99.90
15426;DHT22;7812;50.072;7.036;2023-07-29T14:35:14;25.80;99.90
15426;DHT22;7812;50.072;7.036;2023-07-29T14:37:39;25.80;99.90
15426;DHT22;7812;50.072;7.036;2023-07-29T14:40:06;25.80;99.90
15426;DHT22;7812;50.072;7.036;2023-07-29T14:42:31;25.70;99.90
15426;DHT22;7812;50.072;7.036;2023-07-29T14:44:57;25.50;99.90
15426;DHT22;7812;50.072;7.036;2023-07-29T14:47:23;25.30;99.90
15426;DHT22;7812;50.072;7.036;2023-07-29T14:49:48;25.20;99.90
15426;DHT22;7812;50.072;7.036;2023-07-29T14:52:14;25.30;99.90
15426;DHT22;7812;50.072;7.036;2023-07-29T14:54:40;25.40;99.90
15426;DHT22;7812;50.072;7.036;2023-07-29T14:57:06;25.40;99.90
15426;DHT22;7812;50.072;7.036;2023-07-29T14:59:32;25.20;99.90
15426;DHT22;7812;50.072;7.036;2023-07-29T15:01:58;25.10;99.90
15426;DHT22;7812;50.072;7.036;2023-07-29T15:04:24;25.00;99.90
15426;DHT22;7812;50.072;7.036;2023-07-29T15:06:50;25.00;99.90
15426;DHT22;7812;50.072;7.036;2023-07-29T15:09:16;25.00;99.90
15426;DHT22;7812;50.072;7.036;2023-07-29T15:11:41;25.20;99.90
15426;DHT22;7812;50.072;7.036;2023-07-29T15:14:07;25.30;99.90
15426;DHT22;7812;50.072;7.036;2023-07-29T15:16:33;25.30;99.90
15426;DHT22;7812;50.072;7.036;2023-07-29T15:19:04;25.30;99.90
15426;DHT22;7812;50.072;7.036;2023-07-29T15:21:30;25.40;99.90
15426;DHT22;7812;50.072;7.036;2023-07-29T15:23:55;25.70;99.90
15426;DHT22;7812;50.072;7.036;2023-07-29T15:26:21;25.80;99.90
15426;DHT22;7812;50.072;7.036;2023-07-29T15:28:47;25.80;99.90
15426;DHT22;7812;50.072;7.036;2023-07-29T15:31:13;25.80;99.90
15426;DHT22;7812;50.072;7.036;2023-07-29T15:33:38;25.90;99.90
15426;DHT22;7812;50.072;7.036;2023-07-29T15:36:04;25.60;99.90
15426;DHT22;7812;50.072;7.036;2023-07-29T15:38:30;25.50;99.90
15426;DHT22;7812;50.072;7.036;2023-07-29T15:40:56;25.70;99.90
15426;DHT22;7812;50.072;7.036;2023-07-29T15:43:22;25.80;99.90
15426;DHT22;7812;50.072;7.036;2023-07-29T15:45:49;25.60;99.90
15426;DHT22;7812;50.072;7.036;2023-07-29T15:48:14;25.40;99.90
15426;DHT22;7812;50.072;7.036;2023-07-29T15:50:40;25.30;99.90
15426;DHT22;7812;50.072;7.036;2023-07-29T15:53:06;25.30;99.90
15426;DHT22;7812;50.072;7.036;2023-07-29T15:55:33;25.30;99.90
15426;DHT22;7812;50.072;7.036;2023-07-29T15:57:58;25.20;99.90
15426;DHT22;7812;50.072;7.036;2023-07-29T16:00:24;24.90;99.90
15426;DHT22;7812;50.072;7.036;2023-07-29T16:02:50;24.80;99.90
15426;DHT22;7812;50.072;7.036;2023-07-29T16:05:16;24.60;99.90
15426;DHT22;7812;50.072;7.036;2023-07-29T16:07:41;24.50;99.90
15426;DHT22;7812;50.072;7.036;2023-07-29T16:10:08;24.40;99.90